Time;durP1;ratioP1;P1;durP2;ratioP2;P2;SDS_P1;SDS_P2;PMS_P1;PMS_P2;Temp;Humidity;BMP_temperature;BMP_pressure;BME280_temperature;BME280_humidity;BME280_pressure;Samples;Min_cycle;Max_cycle;Signal;HPM_P1;HPM_P2
2024/03/21 00:04:05;;;;;;;65.53;32.83;;;;;;;8.04;100.00;101110.29;4997403;56;1140904;-84
2024/03/21 00:09:11;;;;;;;65.53;33.10;;;;;;;8.00;100.00;101104.34;4996310;56;1140854;-83
2024/03/21 00:14:17;;;;;;;61.60;32.00;;;;;;;7.96;100.00;101101.96;5015499;57;1140772;-84
2024/03/21 00:19:22;;;;;;;63.78;32.40;;;;;;;7.94;100.00;101102.55;4995625;56;1140852;-83
2024/03/21 00:24:28;;;;;;;60.02;32.36;;;;;;;7.94;100.00;101102.08;4992168;57;1140922;-84
2024/03/21 00:29:34;;;;;;;62.38;32.88;;;;;;;7.94;100.00;101098.13;4962253;57;1140437;-84
2024/03/21 00:34:40;;;;;;;57.33;30.80;;;;;;;7.93;100.00;101091.16;4911944;58;1140478;-82
2024/03/21 00:39:48;;;;;;;61.83;30.97;;;;;;;7.91;100.00;101077.23;4889902;58;1140913;-84
2024/03/21 00:44:53;;;;;;;61.30;29.53;;;;;;;7.89;100.00;101067.25;4938016;57;1140764;-84
2024/03/21 00:49:59;;;;;;;60.90;32.07;;;;;;;7.88;100.00;101060.28;5030370;57;1140680;-83
2024/03/21 00:55:06;;;;;;;56.67;30.97;;;;;;;7.90;100.00;101057.09;5020984;57;1140609;-84
2024/03/21 01:00:13;;;;;;;71.33;32.67;;;;;;;7.93;100.00;101063.97;5040109;57;1140648;-84
2024/03/21 01:05:20;;;;;;;68.33;33.50;;;;;;;7.93;100.00;101055.61;5020997;57;1140695;-83
2024/03/21 01:10:26;;;;;;;58.15;32.38;;;;;;;7.93;100.00;101044.22;5020725;57;1140835;-84
2024/03/21 01:15:32;;;;;;;56.42;32.05;;;;;;;7.94;100.00;101041.97;5021524;57;1140529;-85
2024/03/21 01:20:40;;;;;;;63.93;31.00;;;;;;;7.95;100.00;101041.00;5009604;57;1140680;-84
2024/03/21 01:25:45;;;;;;;66.20;33.30;;;;;;;7.96;100.00;101047.97;4992382;57;1140973;-84
2024/03/21 01:30:51;;;;;;;62.93;33.27;;;;;;;7.98;100.00;101046.09;4991509;57;1141000;-83
2024/03/21 01:35:57;;;;;;;59.57;31.40;;;;;;;7.99;100.00;101039.42;5011057;57;1140712;-83
2024/03/21 01:41:02;;;;;;;59.37;32.00;;;;;;;7.99;100.00;101039.42;4964336;57;1141087;-83
2024/03/21 01:46:24;;;;;;;57.93;32.03;;;;;;;8.00;100.00;101033.22;4970887;57;1140824;-83
2024/03/21 01:51:29;;;;;;;58.37;31.10;;;;;;;7.97;100.00;101024.17;5074895;57;1146590;-84
2024/03/21 01:56:37;;;;;;;56.25;30.12;;;;;;;7.96;100.00;101021.16;5094652;56;1141060;-84
2024/03/21 02:01:43;;;;;;;62.60;32.57;;;;;;;7.98;100.00;101013.17;5074634;56;1141015;-83
2024/03/21 02:06:48;;;;;;;79.43;34.93;;;;;;;7.96;100.00;101016.36;5048992;57;1140432;-83
2024/03/21 02:11:54;;;;;;;71.10;34.77;;;;;;;7.94;100.00;101014.31;5040362;57;1140576;-85
2024/03/21 02:17:00;;;;;;;65.97;33.33;;;;;;;7.89;100.00;101013.73;4945396;57;1140512;-84
2024/03/21 02:27:29;;;;;;;73.72;38.42;;;;;;;7.83;100.00;101010.13;4940452;58;1140911;-84
2024/03/21 02:32:37;;;;;;;68.27;33.73;;;;;;;7.83;100.00;101004.86;4959186;58;1140837;-84
2024/03/21 02:37:42;;;;;;;75.67;34.93;;;;;;;7.82;100.00;101005.79;4940201;58;1140494;-83
2024/03/21 02:42:48;;;;;;;71.30;32.80;;;;;;;7.80;100.00;101001.92;4951140;57;1140390;-84
2024/03/21 02:47:53;;;;;;;74.10;33.70;;;;;;;7.80;100.00;101001.92;5040621;57;1140804;-84
2024/03/21 02:52:59;;;;;;;73.10;33.20;;;;;;;7.81;100.00;101005.41;4994219;57;1140858;-84
2024/03/21 02:58:04;;;;;;;63.47;31.10;;;;;;;7.82;100.00;100999.20;4991786;57;1140341;-84
2024/03/21 03:03:10;;;;;;;54.87;29.33;;;;;;;7.82;100.00;101001.38;5011077;57;1140885;-84
2024/03/21 03:08:16;;;;;;;55.67;30.47;;;;;;;7.86;100.00;101007.31;4991732;58;1140643;-82
2024/03/21 03:13:21;;;;;;;59.90;30.57;;;;;;;7.86;100.00;101009.95;4912205;57;1140791;-83
2024/03/21 03:18:27;;;;;;;69.55;33.63;;;;;;;7.88;100.00;101013.34;4996090;57;1140747;-83
2024/03/21 03:23:33;;;;;;;63.08;31.25;;;;;;;7.84;100.00;101010.03;5016196;57;1141097;-83
2024/03/21 03:28:39;;;;;;;56.57;31.47;;;;;;;7.77;100.00;100999.50;4996069;56;1140682;-83
2024/03/21 03:39:07;;;;;;;;;;;;;;;7.70;100.00;101000.31;5018266;56;1140796;-84
2024/03/21 03:44:13;;;;;;;67.47;31.63;;;;;;;7.65;100.00;100990.97;4974479;57;974392;-83
2024/03/21 03:49:18;;;;;;;70.37;35.27;;;;;;;7.61;100.00;100989.01;4912019;57;1138435;-82
2024/03/21 03:54:25;;;;;;;61.90;32.13;;;;;;;7.59;100.00;100975.08;4982192;57;1141107;-84
2024/03/21 03:59:30;;;;;;;65.92;32.00;;;;;;;7.56;100.00;100981.83;4998206;57;1140984;-83
2024/03/21 04:04:36;;;;;;;63.45;32.78;;;;;;;7.55;100.00;100984.08;4916402;57;1140488;-84
2024/03/21 04:09:42;;;;;;;65.20;33.60;;;;;;;7.56;100.00;100984.94;4944855;57;1140776;-82
2024/03/21 04:14:51;;;;;;;63.77;32.87;;;;;;;7.54;100.00;100984.17;5044862;57;1140845;-83
2024/03/21 04:19:54;;;;;;;67.27;33.57;;;;;;;7.53;100.00;100984.63;4944246;57;1140760;-83
2024/03/21 04:25:02;;;;;;;70.13;35.77;;;;;;;7.52;100.00;100977.67;5025324;57;1140807;-85
2024/03/21 04:30:08;;;;;;;69.43;36.13;;;;;;;7.52;100.00;100978.14;4972397;57;1140630;-82
2024/03/21 04:35:14;;;;;;;64.20;36.17;;;;;;;7.49;100.00;100980.94;5019133;56;1140506;-83
2024/03/21 04:40:19;;;;;;;68.87;37.50;;;;;;;7.49;100.00;100987.52;5019578;56;1255116;-84
2024/03/21 04:45:25;;;;;;;72.87;37.23;;;;;;;7.49;100.00;100986.20;5015944;57;1140897;-82
2024/03/21 04:50:30;;;;;;;79.15;38.95;;;;;;;7.46;100.00;100984.62;5035253;57;1140461;-84
2024/03/21 04:55:38;;;;;;;64.77;36.17;;;;;;;7.43;100.00;100976.90;5015760;57;1140878;-83
2024/03/21 05:00:43;;;;;;;77.63;38.63;;;;;;;7.41;100.00;100974.35;4890785;57;1140645;-84
2024/03/21 05:05:49;;;;;;;71.53;38.97;;;;;;;7.37;100.00;100970.66;5016916;56;1140600;-84
2024/03/21 05:10:54;;;;;;;72.63;39.60;;;;;;;7.33;100.00;100962.08;4944749;57;1140546;-82
2024/03/21 05:16:00;;;;;;;71.97;37.73;;;;;;;7.31;100.00;100960.03;5025664;56;1141070;-83
2024/03/21 05:21:06;;;;;;;78.93;39.33;;;;;;;7.30;100.00;100957.02;5045508;56;1140787;-84
2024/03/21 05:26:12;;;;;;;72.80;37.87;;;;;;;7.29;100.00;100945.27;4944436;58;1140838;-84
2024/03/21 05:31:26;;;;;;;76.87;38.40;;;;;;;7.29;100.00;100948.75;5021026;57;1141188;-82
2024/03/21 05:36:31;;;;;;;76.57;38.33;;;;;;;7.29;100.00;100956.64;5021248;57;1141212;-84
2024/03/21 05:41:37;;;;;;;74.03;39.83;;;;;;;7.33;100.00;100961.27;4988327;57;1140902;-83
2024/03/21 05:46:42;;;;;;;71.93;39.40;;;;;;;7.35;100.00;100951.01;5013782;57;1140672;-82
2024/03/21 05:51:50;;;;;;;79.17;40.67;;;;;;;7.37;100.00;100947.83;5020708;57;1140641;-82
2024/03/21 05:56:55;;;;;;;75.60;39.30;;;;;;;7.37;100.00;100946.51;5036537;57;1140905;-82
2024/03/21 06:02:00;;;;;;;73.77;37.87;;;;;;;7.41;100.00;100953.77;5020816;57;1140414;-82
2024/03/21 06:07:06;;;;;;;68.07;36.50;;;;;;;7.42;100.00;100947.56;5020852;57;1140918;-82
2024/03/21 06:12:12;;;;;;;86.43;42.10;;;;;;;7.45;100.00;100946.09;5040502;57;1140811;-82
2024/03/21 06:17:17;;;;;;;84.13;41.70;;;;;;;7.46;100.00;100946.93;5020402;57;1140587;-82
2024/03/21 06:22:23;;;;;;;87.83;46.50;;;;;;;7.47;100.00;100948.16;4985344;55;1140647;-82
2024/03/21 06:27:29;;;;;;;90.47;43.63;;;;;;;7.49;100.00;100950.67;4959129;56;1141112;-82
2024/03/21 06:32:34;;;;;;;112.75;51.48;;;;;;;7.50;100.00;100951.06;4963091;57;1143205;-81
2024/03/21 06:37:40;;;;;;;77.50;41.13;;;;;;;7.57;100.00;100950.62;4939760;57;1144658;-84
2024/03/21 06:42:46;;;;;;;125.07;54.13;;;;;;;7.63;100.00;100948.97;4941612;55;1142905;-84
2024/03/21 06:47:51;;;;;;;142.50;76.67;;;;;;;7.70;100.00;100956.87;4942173;57;1144758;-84
2024/03/21 06:52:58;;;;;;;84.23;46.70;;;;;;;7.75;100.00;100953.97;4938586;57;1142801;-83
2024/03/21 06:58:04;;;;;;;81.47;39.87;;;;;;;7.76;100.00;100961.78;4934782;56;1140714;-83
2024/03/21 07:03:09;;;;;;;77.43;41.20;;;;;;;7.78;100.00;100959.53;4943833;56;1140681;-82
2024/03/21 07:08:15;;;;;;;72.07;39.60;;;;;;;7.77;100.00;100963.95;4915282;57;1140663;-83
2024/03/21 07:13:20;;;;;;;76.57;40.73;;;;;;;7.78;100.00;100965.65;4915062;58;1140791;-82
2024/03/21 07:18:26;;;;;;;88.57;43.60;;;;;;;7.83;100.00;100966.67;4996750;56;1140967;-83
2024/03/21 07:23:32;;;;;;;104.23;50.45;;;;;;;7.87;100.00;100969.52;4934958;57;1140885;-82
2024/03/21 07:28:37;;;;;;;72.42;39.20;;;;;;;7.91;100.00;100966.62;4963139;56;1174502;-81
2024/03/21 07:33:45;;;;;;;111.37;46.60;;;;;;;7.95;100.00;100967.25;4917629;57;1191714;-81
2024/03/21 07:38:50;;;;;;;71.13;37.87;;;;;;;8.01;100.00;100970.86;4978057;56;1142850;-81
2024/03/21 07:43:56;;;;;;;71.00;37.35;;;;;;;8.05;100.00;100954.78;5032672;57;1140666;-83
2024/03/21 07:49:01;;;;;;;62.13;33.40;;;;;;;8.12;100.00;100954.77;4996428;56;1140646;-83
2024/03/21 07:54:07;;;;;;;70.12;34.70;;;;;;;8.23;100.00;100958.56;5053803;56;1140662;-83
2024/03/21 07:59:13;;;;;;;75.47;36.20;;;;;;;8.35;100.00;100962.64;4994778;58;1140749;-84
2024/03/21 08:04:18;;;;;;;68.70;35.03;;;;;;;8.48;100.00;100952.66;4995030;55;1140781;-83
2024/03/21 08:09:25;;;;;;;63.38;32.05;;;;;;;8.61;100.00;100955.75;5003337;55;1140893;-83
2024/03/21 08:14:30;;;;;;;75.65;37.93;;;;;;;8.65;100.00;100949.36;4835807;58;1238913;-84
2024/03/21 08:19:36;;;;;;;75.63;37.07;;;;;;;8.83;100.00;100955.73;4974960;56;1221981;-83
2024/03/21 08:24:41;;;;;;;116.08;46.75;;;;;;;8.89;100.00;100956.17;5013562;56;1141258;-83
2024/03/21 08:29:50;;;;;;;145.67;63.57;;;;;;;8.96;100.00;100952.69;4992639;57;1180731;-84
2024/03/21 08:34:57;;;;;;;76.67;39.50;;;;;;;9.03;100.00;100961.88;4977110;57;1219281;-83
2024/03/21 08:40:03;;;;;;;66.13;33.57;;;;;;;9.10;100.00;100964.52;4873446;58;1225343;-83
2024/03/21 08:45:10;;;;;;;75.53;34.40;;;;;;;9.18;100.00;100973.63;5039364;55;1229578;-83
2024/03/21 08:50:15;;;;;;;71.43;35.73;;;;;;;9.21;100.00;100969.09;5071413;56;1222207;-83
2024/03/21 08:55:21;;;;;;;135.73;76.03;;;;;;;9.26;100.00;100969.18;5091865;56;1212774;-83
2024/03/21 09:00:27;;;;;;;80.40;44.63;;;;;;;9.27;100.00;100973.52;5076184;56;1230104;-82
2024/03/21 09:05:32;;;;;;;73.05;36.95;;;;;;;9.32;100.00;100975.87;5086701;56;1255156;-83
2024/03/21 09:10:38;;;;;;;64.60;34.45;;;;;;;9.37;100.00;100975.08;5118554;56;1140932;-83
2024/03/21 09:15:44;;;;;;;75.43;41.13;;;;;;;9.43;100.00;100977.33;5097025;56;1244679;-84
2024/03/21 09:20:56;;;;;;;78.53;42.13;;;;;;;9.49;100.00;100967.66;5095034;56;1238427;-83
2024/03/21 09:26:02;;;;;;;61.93;34.07;;;;;;;9.55;100.00;100963.31;5068758;56;1140829;-85
2024/03/21 09:31:08;;;;;;;65.50;36.00;;;;;;;9.65;100.00;100969.66;5097890;56;1142890;-80
2024/03/21 09:36:13;;;;;;;61.93;32.93;;;;;;;9.72;100.00;100962.19;5014948;56;1143082;-81
2024/03/21 09:41:19;;;;;;;68.37;34.78;;;;;;;9.79;100.00;100960.81;5094404;56;1142938;-83
2024/03/21 09:46:25;;;;;;;67.83;35.73;;;;;;;9.82;100.00;100965.89;5048328;56;1143007;-82
2024/03/21 09:51:30;;;;;;;69.53;36.87;;;;;;;9.86;100.00;100957.67;5024743;57;1142958;-86
2024/03/21 09:56:36;;;;;;;92.35;43.50;;;;;;;9.88;100.00;100962.86;5011005;56;1143080;-83
2024/03/21 10:01:41;;;;;;;83.37;38.53;;;;;;;9.99;100.00;100959.47;4981870;56;1143136;-84
2024/03/21 10:06:51;;;;;;;70.43;35.53;;;;;;;10.07;100.00;100947.45;4932926;57;1142855;-81
2024/03/21 10:11:56;;;;;;;82.43;40.27;;;;;;;10.16;100.00;100949.92;4973168;56;1144957;-84
2024/03/21 10:17:03;;;;;;;67.90;34.40;;;;;;;10.25;100.00;100937.88;5098687;56;1144961;-85
2024/03/21 10:22:23;;;;;;;77.70;36.97;;;;;;;10.32;100.00;100942.66;5077936;56;1161343;-83
2024/03/21 10:27:29;;;;;;;63.47;33.20;;;;;;;10.36;100.00;100938.84;5076765;56;1250758;-86
2024/03/21 10:32:34;;;;;;;58.13;29.82;;;;;;;10.39;100.00;100941.25;5077804;56;1151218;-80
2024/03/21 10:37:40;;;;;;;74.57;38.17;;;;;;;10.45;100.00;100931.58;5149622;55;1145070;-82
2024/03/21 10:42:56;;;;;;;58.33;31.47;;;;;;;10.55;100.00;100926.48;5062658;56;1144895;-81
2024/03/21 10:48:02;;;;;;;61.50;29.47;;;;;;;10.70;100.00;100924.06;5075586;57;1144925;-80
2024/03/21 10:53:12;;;;;;;73.87;35.60;;;;;;;10.76;100.00;100926.28;5091303;56;1145107;-82
2024/03/21 10:58:20;;;;;;;56.60;29.90;;;;;;;10.82;100.00;100916.59;4978284;56;1144987;-82
2024/03/21 11:03:26;;;;;;;80.23;39.60;;;;;;;10.98;100.00;100912.83;4836142;58;1144916;-85
2024/03/21 11:08:32;;;;;;;71.07;33.85;;;;;;;11.05;100.00;100902.14;4895763;58;1152535;-80
2024/03/21 11:13:38;;;;;;;58.83;29.87;;;;;;;11.25;100.00;100901.05;4979202;56;1144952;-80
2024/03/21 11:18:43;;;;;;;57.70;30.70;;;;;;;11.40;100.00;100899.53;4910239;59;1144806;-84
2024/03/21 11:23:50;;;;;;;51.90;30.07;;;;;;;11.49;100.00;100892.21;4913670;58;1145475;-80
2024/03/21 11:28:55;;;;;;;49.83;26.03;;;;;;;11.67;100.00;100884.68;5014672;57;1144976;-82
2024/03/21 11:34:01;;;;;;;49.80;26.67;;;;;;;11.86;100.00;100879.70;4940494;57;1144820;-83
2024/03/21 11:39:08;;;;;;;72.03;35.93;;;;;;;11.97;100.00;100888.50;4926008;57;1144765;-81
2024/03/21 11:44:15;;;;;;;68.70;35.40;;;;;;;12.02;100.00;100880.68;4927385;57;1145179;-80
2024/03/21 11:49:21;;;;;;;58.10;31.13;;;;;;;12.09;100.00;100886.69;4910971;58;1144772;-84
2024/03/21 11:54:27;;;;;;;57.23;32.23;;;;;;;12.17;100.00;100868.39;4853422;58;1144693;-84
2024/03/21 11:59:37;;;;;;;47.93;26.87;;;;;;;12.18;100.00;100867.44;4915404;58;1145288;-83
2024/03/21 12:04:40;;;;;;;49.60;26.48;;;;;;;12.14;100.00;100863.33;4934407;57;1144635;-81
2024/03/21 12:09:46;;;;;;;39.20;23.32;;;;;;;12.20;100.00;100865.98;4914548;57;1144961;-83
2024/03/21 12:14:51;;;;;;;43.37;24.93;;;;;;;12.32;100.00;100876.95;4996758;56;1144984;-83
2024/03/21 12:19:58;;;;;;;45.53;27.63;;;;;;;12.38;100.00;100874.27;5016093;56;1144601;-82
2024/03/21 12:25:05;;;;;;;48.60;27.13;;;;;;;12.36;100.00;100874.42;4995871;56;1144682;-81
2024/03/21 12:30:12;;;;;;;40.43;21.43;;;;;;;12.33;100.00;100874.66;4947137;57;1144670;-84
2024/03/21 12:35:18;;;;;;;38.33;22.63;;;;;;;12.30;100.00;100883.70;4932889;57;1145022;-82
2024/03/21 12:40:23;;;;;;;32.70;19.13;;;;;;;12.21;100.00;100879.12;4915259;57;1144765;-81
2024/03/21 12:45:30;;;;;;;26.90;16.30;;;;;;;12.16;100.00;100882.61;4906803;57;1145139;-81
2024/03/21 12:50:36;;;;;;;32.67;16.25;;;;;;;12.13;100.00;100882.84;4823957;58;1144803;-84
2024/03/21 12:55:41;;;;;;;25.50;13.60;;;;;;;12.10;100.00;100886.21;4934585;57;1145067;-82
2024/03/21 13:00:47;;;;;;;25.37;14.63;;;;;;;12.07;100.00;100889.13;4936857;56;1144738;-80
2024/03/21 13:05:53;;;;;;;27.20;15.40;;;;;;;12.06;100.00;100888.28;4973106;56;1145266;-80
2024/03/21 13:10:58;;;;;;;22.07;12.37;;;;;;;12.06;100.00;100886.95;5046912;56;1144996;-84
2024/03/21 13:16:04;;;;;;;21.07;13.83;;;;;;;12.10;100.00;100887.06;5001772;56;1144938;-82
2024/03/21 13:21:10;;;;;;;21.40;13.93;;;;;;;12.11;100.00;100871.52;4974787;57;1144995;-81
2024/03/21 13:26:16;;;;;;;21.37;13.73;;;;;;;12.12;100.00;100874.53;5010789;57;1144813;-84
2024/03/21 13:31:21;;;;;;;19.37;12.30;;;;;;;12.18;100.00;100873.22;5005924;57;1144654;-82
2024/03/21 13:36:27;;;;;;;18.13;12.43;;;;;;;12.20;100.00;100864.18;5078353;56;1144698;-81
2024/03/21 13:41:32;;;;;;;23.32;14.80;;;;;;;12.21;100.00;100864.55;5077178;55;1152210;-80
2024/03/21 13:46:38;;;;;;;27.13;15.48;;;;;;;12.20;100.00;100856.23;5015745;57;1144949;-84
2024/03/21 13:51:44;;;;;;;24.20;12.87;;;;;;;12.17;100.00;100856.46;4995275;56;1154118;-84
2024/03/21 13:56:49;;;;;;;28.27;14.10;;;;;;;12.16;100.00;100853.92;4939480;56;1145403;-85
2024/03/21 14:01:57;;;;;;;21.83;12.77;;;;;;;12.12;100.00;100858.62;4930598;57;1144648;-82
2024/03/21 14:07:03;;;;;;;26.00;15.30;;;;;;;12.03;100.00;100863.33;4954557;56;1145100;-81
2024/03/21 14:12:08;;;;;;;26.70;14.23;;;;;;;11.96;100.00;100847.05;5003086;56;1145046;-83
2024/03/21 14:17:14;;;;;;;28.03;16.90;;;;;;;11.90;100.00;100848.02;5043889;56;1145186;-85
2024/03/21 14:22:20;;;;;;;28.27;17.80;;;;;;;11.79;100.00;100847.98;5023737;57;1145133;-82
2024/03/21 14:27:26;;;;;;;33.17;18.00;;;;;;;11.50;100.00;100840.92;5023482;55;1145065;-84
2024/03/21 14:32:32;;;;;;;32.74;18.42;;;;;;;11.50;100.00;100840.92;5025897;57;1145125;-83
2024/03/21 14:37:37;;;;;;;34.63;19.30;;;;;;;11.45;100.00;100838.66;5025261;56;1144875;-83
2024/03/21 14:42:43;;;;;;;32.17;20.50;;;;;;;11.44;100.00;100828.17;5009913;57;1144813;-84
2024/03/21 14:47:48;;;;;;;44.35;21.95;;;;;;;11.46;100.00;100840.31;5024356;57;1145025;-82
2024/03/21 14:52:54;;;;;;;178.20;60.27;;;;;;;11.43;100.00;100823.83;5043323;57;1144673;-81
2024/03/21 14:58:00;;;;;;;112.20;33.73;;;;;;;11.41;100.00;100820.45;5040650;56;1146781;-84
2024/03/21 15:03:08;;;;;;;101.30;45.13;;;;;;;11.45;100.00;100826.73;5022921;56;1146972;-85
2024/03/21 15:21:40;;;;;;;65.87;35.43;;;;;;;11.61;100.00;100821.92;4718450;58;1145010;-84
2024/03/21 15:26:58;;;;;;;;;;;;;;;;;;;;;
2024/03/21 15:31:58;;;;;;;48.43;25.60;;;;;;;11.66;100.00;100834.81;4837739;57;1145562;-83
2024/03/21 16:19:06;;;;;;;34.80;21.50;;;;;;;11.67;100.00;100860.36;4547316;63;1144780;-83
2024/03/21 16:25:13;;;;;;;;;;;;;;;;;;;;;
2024/03/21 16:58:05;;;;;;;42.20;25.27;;;;;;;11.50;100.00;100859.47;5131293;55;1140654;-87
2024/03/21 17:03:14;;;;;;;79.63;48.40;;;;;;;11.47;100.00;100855.24;5016333;56;1145059;-87
2024/03/21 17:08:23;;;;;;;145.83;57.47;;;;;;;11.45;100.00;100847.08;5087183;56;1144886;-83
2024/03/21 17:13:32;;;;;;;41.30;27.47;;;;;;;11.43;100.00;100854.29;5002894;56;1147056;-84
2024/03/21 17:18:38;;;;;;;175.37;75.97;;;;;;;11.40;100.00;100859.81;5111409;55;1144666;-83
2024/03/21 17:23:54;;;;;;;47.27;28.43;;;;;;;11.39;100.00;100852.34;5129560;55;1146863;-84
2024/03/21 17:28:54;;;;;;;38.83;28.05;;;;;;;11.37;100.00;100859.56;5092737;55;1144701;-86
2024/03/21 17:34:03;;;;;;;42.60;22.22;;;;;;;11.36;100.00;100853.05;5124995;55;1144780;-86
2024/03/21 17:39:07;;;;;;;34.10;20.27;;;;;;;11.37;100.00;100870.63;5139191;56;1145092;-85
2024/03/21 17:44:14;;;;;;;48.57;25.13;;;;;;;11.36;100.00;100872.44;5082548;55;1145101;-85
2024/03/21 17:49:20;;;;;;;26.63;18.23;;;;;;;11.34;100.00;100877.00;5051169;56;1145223;-86
2024/03/21 17:54:26;;;;;;;37.10;28.65;;;;;;;11.33;100.00;100882.41;5117948;56;1144834;-85
2024/03/21 17:59:32;;;;;;;31.37;17.30;;;;;;;11.30;100.00;100875.56;5069960;56;1271977;-86
2024/03/21 18:15:51;;;;;;;33.03;20.57;;;;;;;11.25;100.00;100890.45;4673102;61;1144811;-86
2024/03/21 18:26:32;;;;;;;32.53;18.70;;;;;;;11.26;100.00;100901.41;5242877;55;47076;-87
2024/03/21 18:31:43;;;;;;;34.17;20.40;;;;;;;11.20;100.00;100912.92;5112521;57;1141378;-89
2024/03/21 18:36:51;;;;;;;30.77;18.50;;;;;;;11.18;100.00;100913.52;5050162;56;1145274;-87
2024/03/21 18:41:57;;;;;;;28.33;19.90;;;;;;;11.18;100.00;100913.52;5051037;56;1145140;-84
2024/03/21 18:47:03;;;;;;;29.47;20.63;;;;;;;11.14;100.00;100927.95;5147518;56;1144884;-86
2024/03/21 18:52:09;;;;;;;37.98;22.10;;;;;;;11.11;100.00;100918.91;5175555;56;1145132;-86
2024/03/21 18:57:15;;;;;;;29.15;20.15;;;;;;;11.07;100.00;100909.02;5202978;56;1144633;-86
2024/03/21 19:02:21;;;;;;;37.70;21.37;;;;;;;11.07;100.00;100896.27;5140676;56;1144711;-86
2024/03/21 19:07:31;;;;;;;31.30;21.37;;;;;;;11.01;100.00;100892.73;5104594;56;1144881;-85
2024/03/21 19:12:39;;;;;;;26.80;18.60;;;;;;;10.86;100.00;100876.17;5122374;56;1145199;-85
2024/03/21 19:17:53;;;;;;;31.77;20.63;;;;;;;10.97;100.00;100908.48;5159232;56;1145046;-85
2024/03/21 19:23:15;;;;;;;;;;;;;;;;;;;;;
2024/03/21 19:28:15;;;;;;;25.70;16.32;;;;;;;10.88;100.00;100921.41;4719901;60;1145349;-85
2024/03/21 19:33:21;;;;;;;26.73;15.83;;;;;;;10.88;100.00;100923.22;4762066;60;1145055;-86
2024/03/21 19:38:30;;;;;;;21.10;15.03;;;;;;;10.85;100.00;100921.63;4788495;59;1145033;-86
2024/03/21 19:43:39;;;;;;;21.10;13.88;;;;;;;10.80;100.00;100915.84;4737267;60;1144980;-85
2024/03/21 19:48:45;;;;;;;19.73;13.62;;;;;;;10.87;100.00;100926.34;4795149;60;1145299;-86
2024/03/21 19:53:53;;;;;;;21.50;13.37;;;;;;;10.88;100.00;100927.19;4816907;60;1144939;-86
2024/03/21 19:58:59;;;;;;;23.00;15.50;;;;;;;10.86;100.00;100918.03;4788958;60;1145189;-88
2024/03/21 20:04:08;;;;;;;25.30;14.60;;;;;;;10.88;100.00;100921.41;4757290;60;1145031;-87
2024/03/21 20:09:15;;;;;;;19.27;13.07;;;;;;;10.89;100.00;100920.94;5076490;57;1144968;-86
2024/03/21 20:14:20;;;;;;;25.80;14.95;;;;;;;10.87;100.00;100928.14;5101076;57;1145075;-85
2024/03/21 20:19:26;;;;;;;16.40;12.40;;;;;;;10.85;100.00;100932.22;5053238;57;1144559;-85
2024/03/21 20:24:32;;;;;;;21.73;13.80;;;;;;;10.86;100.00;100937.88;5050049;57;1145035;-84
2024/03/21 20:29:40;;;;;;;31.50;18.60;;;;;;;10.88;100.00;100938.62;5032205;57;1144964;-85
2024/03/21 20:34:46;;;;;;;18.67;10.63;;;;;;;10.85;100.00;100941.95;5052278;57;1144966;-85
2024/03/21 20:39:53;;;;;;;41.47;21.43;;;;;;;10.83;100.00;100948.70;5018338;57;1145239;-85
2024/03/21 20:45:00;;;;;;;101.37;48.33;;;;;;;10.79;100.00;100948.55;5065714;57;1144918;-87
2024/03/21 21:08:28;;;;;;;13.07;7.87;;;;;;;10.63;100.00;100972.23;4046415;72;1136676;-87
2024/03/21 21:55:49;;;;;;;7.33;5.73;;;;;;;10.18;100.00;101008.81;5051209;53;1136661;-86
2024/03/21 22:00:56;;;;;;;9.10;6.45;;;;;;;10.14;100.00;101004.68;4961458;56;1140557;-86
2024/03/21 22:06:04;;;;;;;9.65;6.55;;;;;;;10.09;100.00;101010.74;5037478;57;1140936;-86
2024/03/21 22:11:14;;;;;;;13.03;8.03;;;;;;;10.06;100.00;101009.17;5105442;55;1140549;-86
2024/03/21 22:16:20;;;;;;;10.87;7.27;;;;;;;10.03;100.00;101008.06;5073444;55;1143156;-86
2024/03/21 22:21:27;;;;;;;13.37;8.97;;;;;;;9.99;100.00;101012.32;5121337;55;1142779;-86
2024/03/21 22:26:33;;;;;;;12.36;6.76;;;;;;;9.96;100.00;101000.63;5118431;55;1140684;-86
2024/03/21 22:31:39;;;;;;;10.30;7.40;;;;;;;9.95;100.00;100997.61;5221091;54;1140426;-86
2024/03/21 22:36:44;;;;;;;11.83;8.87;;;;;;;9.92;100.00;101009.27;5208652;54;1141016;-85
2024/03/21 22:41:50;;;;;;;9.67;7.13;;;;;;;9.86;100.00;101003.06;5197885;54;1141026;-85
2024/03/21 22:46:56;;;;;;;12.93;9.97;;;;;;;9.75;100.00;100989.73;5169949;55;1138862;-86
2024/03/21 22:52:02;;;;;;;11.97;8.00;;;;;;;9.75;100.00;100989.73;5131642;54;1140397;-85
2024/03/21 22:57:08;;;;;;;10.30;7.97;;;;;;;9.78;100.00;100996.95;5166329;54;1140821;-85
2024/03/21 23:02:14;;;;;;;11.23;8.30;;;;;;;9.75;100.00;100988.41;5208870;54;1140704;-85
2024/03/21 23:07:19;;;;;;;13.20;8.93;;;;;;;9.73;100.00;100992.47;5121728;55;1140607;-85
2024/03/21 23:12:25;;;;;;;13.18;9.53;;;;;;;9.73;100.00;100995.58;5105192;55;1140868;-85
2024/03/21 23:17:31;;;;;;;12.43;8.60;;;;;;;9.57;100.00;100985.19;5133864;55;1141210;-85
2024/03/21 23:22:38;;;;;;;14.67;9.00;;;;;;;9.61;100.00;100993.28;5138771;55;1140421;-85
2024/03/21 23:27:48;;;;;;;13.95;8.80;;;;;;;9.58;100.00;101000.55;5115439;55;1140612;-86
2024/03/21 23:32:55;;;;;;;9.40;5.93;;;;;;;9.53;100.00;100981.05;4968418;55;1140708;-86
2024/03/21 23:38:01;;;;;;;5.40;4.80;;;;;;;9.49;100.00;100973.79;5221440;55;1138666;-86
2024/03/21 23:43:06;;;;;;;6.87;4.70;;;;;;;9.49;100.00;100989.63;5206897;55;1138687;-86
2024/03/21 23:48:12;;;;;;;7.10;6.27;;;;;;;9.48;100.00;100997.18;5166144;55;1138817;-86
2024/03/21 23:53:19;;;;;;;7.40;5.33;;;;;;;9.48;100.00;100991.90;5119998;55;1148157;-86
2024/03/21 23:58:25;;;;;;;6.78;5.80;;;;;;;9.47;100.00;100980.14;5120085;55;1138467;-87
